Time;durP1;ratioP1;P1;durP2;ratioP2;P2;SDS_P1;SDS_P2;PMS_P1;PMS_P2;Temp;Humidity;BMP_temperature;BMP_pressure;BME280_temperature;BME280_humidity;BME280_pressure;Samples;Min_cycle;Max_cycle;Signal;HPM_P1;HPM_P2
2020/12/29 00:00:52;;;;;;;4.00;2.77;;;5.10;99.90;;;;;;4938856;29;21039;-81
2020/12/29 00:03:18;;;;;;;2.90;2.50;;;5.00;99.90;;;;;;4938788;29;20606;-81
2020/12/29 00:05:44;;;;;;;5.83;2.90;;;5.10;99.90;;;;;;4938759;29;20548;-81
2020/12/29 00:08:10;;;;;;;3.27;2.80;;;5.00;99.90;;;;;;4938792;29;20183;-81
2020/12/29 00:10:36;;;;;;;4.43;2.93;;;5.00;99.90;;;;;;4938752;29;20473;-80
2020/12/29 00:13:02;;;;;;;2.70;2.23;;;5.00;99.90;;;;;;4938482;29;20642;-79
2020/12/29 00:15:27;;;;;;;5.60;2.77;;;5.00;99.90;;;;;;4938336;29;20429;-79
2020/12/29 00:17:53;;;;;;;2.93;2.30;;;5.00;99.90;;;;;;4938608;29;20175;-79
2020/12/29 00:20:18;;;;;;;3.10;2.90;;;5.00;99.90;;;;;;4938560;29;20181;-78
2020/12/29 00:22:44;;;;;;;3.10;2.50;;;4.90;99.90;;;;;;4939037;29;20183;-77
2020/12/29 00:25:10;;;;;;;3.50;2.30;;;4.90;99.90;;;;;;4938466;29;20183;-77
2020/12/29 00:27:35;;;;;;;3.80;2.83;;;4.80;99.90;;;;;;4938164;29;20642;-77
2020/12/29 00:30:02;;;;;;;3.73;2.90;;;4.80;99.90;;;;;;4938345;29;20515;-77
2020/12/29 00:32:27;;;;;;;3.03;2.60;;;4.70;99.90;;;;;;4938389;29;20221;-77
2020/12/29 00:34:53;;;;;;;2.60;2.40;;;4.60;99.90;;;;;;4938295;29;20469;-82
2020/12/29 00:37:18;;;;;;;2.63;2.43;;;4.60;99.90;;;;;;4938267;29;20175;-81
2020/12/29 00:39:44;;;;;;;3.30;2.93;;;4.50;99.90;;;;;;4937718;29;20762;-81
2020/12/29 00:42:09;;;;;;;4.43;3.23;;;4.50;99.90;;;;;;4937891;29;20433;-82
2020/12/29 00:44:35;;;;;;;2.60;2.40;;;4.50;99.90;;;;;;4938119;29;20187;-83
2020/12/29 00:47:01;;;;;;;4.13;2.70;;;4.50;99.90;;;;;;4937627;29;20733;-80
2020/12/29 00:49:26;;;;;;;3.53;2.87;;;4.60;99.90;;;;;;4937748;29;20587;-80
2020/12/29 00:51:55;;;;;;;3.30;2.90;;;4.60;99.90;;;;;;4936858;29;20430;-80
2020/12/29 00:54:21;;;;;;;3.87;3.00;;;4.60;99.90;;;;;;4937946;29;20193;-84
2020/12/29 00:56:47;;;;;;;2.67;2.47;;;4.60;99.90;;;;;;4937598;29;20894;-77
2020/12/29 00:59:13;;;;;;;4.27;3.13;;;4.50;99.90;;;;;;4937853;29;20430;-75
2020/12/29 01:01:39;;;;;;;3.03;2.53;;;4.50;99.90;;;;;;4937547;29;20187;-75
2020/12/29 01:04:04;;;;;;;3.47;2.70;;;4.50;99.90;;;;;;4937750;29;20850;-76
2020/12/29 01:06:30;;;;;;;4.37;3.00;;;4.60;99.90;;;;;;4937608;29;20483;-76
2020/12/29 01:08:56;;;;;;;5.60;2.73;;;4.60;99.90;;;;;;4937688;29;20179;-76
2020/12/29 01:11:21;;;;;;;4.27;3.20;;;4.50;99.90;;;;;;4937636;29;20637;-76
2020/12/29 01:13:47;;;;;;;3.00;2.70;;;4.50;99.90;;;;;;4937571;29;20771;-76
2020/12/29 01:16:12;;;;;;;3.63;2.77;;;4.50;99.90;;;;;;4937196;29;20182;-80
2020/12/29 01:18:38;;;;;;;2.80;2.50;;;4.50;99.90;;;;;;4937196;29;20190;-81
2020/12/29 01:21:05;;;;;;;3.13;2.60;;;4.50;99.90;;;;;;4937223;29;20633;-81
2020/12/29 01:23:32;;;;;;;5.00;2.70;;;4.50;99.90;;;;;;4937159;29;20550;-81
2020/12/29 01:25:57;;;;;;;2.87;2.50;;;4.40;99.90;;;;;;4937309;29;20479;-83
2020/12/29 01:28:23;;;;;;;3.50;2.97;;;4.40;99.90;;;;;;4937322;29;20434;-83
2020/12/29 01:30:48;;;;;;;3.23;2.37;;;4.30;99.90;;;;;;4937239;29;20182;-80
2020/12/29 01:33:14;;;;;;;6.07;2.83;;;4.30;99.90;;;;;;4937263;29;20178;-78
2020/12/29 01:35:39;;;;;;;3.27;2.73;;;4.30;99.90;;;;;;4937241;29;20173;-81
2020/12/29 01:38:05;;;;;;;2.47;2.20;;;4.30;99.90;;;;;;4937241;29;20177;-76
2020/12/29 01:40:31;;;;;;;4.70;2.93;;;4.30;99.90;;;;;;4937131;29;20183;-76
2020/12/29 01:42:57;;;;;;;2.80;2.60;;;4.30;99.90;;;;;;4937114;29;20284;-76
2020/12/29 01:45:23;;;;;;;5.07;3.17;;;4.20;99.90;;;;;;4937022;29;20456;-75
2020/12/29 01:47:48;;;;;;;5.00;2.60;;;4.20;99.90;;;;;;4936545;29;20486;-76
2020/12/29 01:50:16;;;;;;;5.83;2.80;;;4.20;99.90;;;;;;4936980;29;20528;-76
2020/12/29 01:52:42;;;;;;;3.93;2.83;;;4.20;99.90;;;;;;4936929;29;20260;-76
2020/12/29 01:55:09;;;;;;;2.37;2.13;;;4.20;99.90;;;;;;4936905;29;20455;-76
2020/12/29 01:57:36;;;;;;;4.20;2.60;;;4.10;99.90;;;;;;4936579;29;20217;-76
2020/12/29 02:00:08;;;;;;;2.40;2.20;;;4.10;99.90;;;;;;4936780;29;20462;-76
2020/12/29 02:02:34;;;;;;;3.07;2.23;;;4.10;99.90;;;;;;4939297;29;20454;-88
2020/12/29 02:05:00;;;;;;;3.60;2.80;;;4.10;99.90;;;;;;4937680;29;20492;-87
2020/12/29 02:07:28;;;;;;;2.50;2.30;;;4.00;99.90;;;;;;4938069;29;20510;-78
2020/12/29 06:32:11;;;;;;;7.37;4.30;;;4.60;99.90;;;;;;5317170;23;20497;-81
2020/12/29 06:34:37;;;;;;;5.60;3.80;;;4.60;99.90;;;;;;4993922;28;20437;-81
2020/12/29 06:37:07;;;;;;;5.20;4.23;;;4.60;99.90;;;;;;4993880;28;20423;-81
2020/12/29 06:39:37;;;;;;;7.00;4.53;;;4.50;99.90;;;;;;4993871;28;20463;-82
2020/12/29 06:42:03;;;;;;;6.73;4.60;;;4.60;99.90;;;;;;4993743;28;20480;-81
2020/12/29 06:44:33;;;;;;;7.10;4.90;;;4.50;99.90;;;;;;4993850;28;20435;-80
2020/12/29 06:46:58;;;;;;;6.53;4.10;;;4.50;99.90;;;;;;4993511;28;20219;-82
2020/12/29 06:49:24;;;;;;;7.90;4.17;;;4.40;99.90;;;;;;4995649;28;20429;-81
2020/12/29 06:52:13;;;;;;;5.50;4.00;;;4.40;99.90;;;;;;4997890;28;20582;-81
2020/12/29 06:54:46;;;;;;;6.07;4.57;;;4.40;99.90;;;;;;4997744;28;20208;-81
2020/12/29 06:57:11;;;;;;;10.32;5.50;;;4.30;99.90;;;;;;5030646;23;20962;-75
2020/12/29 06:59:41;;;;;;;5.83;4.43;;;4.30;99.90;;;;;;4996467;28;20550;-70
2020/12/29 07:02:36;;;;;;;5.30;4.17;;;4.40;99.90;;;;;;4985713;28;20471;-81
2020/12/29 07:05:15;;;;;;;4.30;3.90;;;4.40;99.90;;;;;;4983812;28;20472;-83
2020/12/29 07:07:52;;;;;;;5.20;3.80;;;4.40;99.90;;;;;;4985086;28;20475;-74
2020/12/29 07:10:18;;;;;;;4.63;4.00;;;4.40;99.90;;;;;;4985160;28;20435;-72
2020/12/29 07:12:50;;;;;;;6.60;3.90;;;4.40;99.90;;;;;;4986835;28;20440;-79
2020/12/29 07:15:18;;;;;;;7.33;5.17;;;4.40;99.90;;;;;;4988221;28;20448;-77
2020/12/29 07:17:57;;;;;;;6.47;4.47;;;4.40;99.90;;;;;;4990993;28;20993;-76
2020/12/29 07:20:25;;;;;;;6.27;4.50;;;4.40;99.90;;;;;;4987116;28;20452;-73
2020/12/29 07:22:55;;;;;;;7.77;4.77;;;4.30;99.90;;;;;;4986238;28;20431;-77
2020/12/29 07:25:25;;;;;;;5.87;4.50;;;4.30;99.90;;;;;;4987251;28;20526;-74
2020/12/29 07:27:54;;;;;;;8.20;5.70;;;4.30;99.90;;;;;;4985313;28;20813;-73
2020/12/29 07:30:20;;;;;;;7.10;4.17;;;4.30;99.90;;;;;;4984343;28;20425;-75
2020/12/29 07:32:45;;;;;;;6.30;5.27;;;4.40;99.90;;;;;;4986717;28;20938;-77
2020/12/29 07:35:12;;;;;;;8.80;5.63;;;4.40;99.90;;;;;;4984553;28;20217;-76
2020/12/29 07:37:40;;;;;;;6.53;5.83;;;4.50;99.90;;;;;;4984770;28;20525;-77
2020/12/29 07:40:06;;;;;;;6.50;4.77;;;4.50;99.90;;;;;;4986544;28;20432;-80
2020/12/29 07:42:32;;;;;;;7.50;5.00;;;4.60;99.90;;;;;;4984967;28;20567;-80
2020/12/29 07:44:58;;;;;;;5.50;5.00;;;4.60;99.90;;;;;;4985611;28;20447;-82
2020/12/29 07:47:23;;;;;;;8.17;5.53;;;4.70;99.90;;;;;;4984857;28;20294;-79
2020/12/29 07:49:49;;;;;;;8.90;5.70;;;4.70;99.90;;;;;;4997864;28;20524;-83
2020/12/29 07:52:22;;;;;;;7.27;6.07;;;4.80;99.90;;;;;;5015147;28;20256;-79
2020/12/29 07:54:47;;;;;;;11.27;5.93;;;4.70;99.90;;;;;;4998381;28;20191;-79
2020/12/29 07:57:13;;;;;;;7.83;6.00;;;4.80;99.90;;;;;;4995133;28;20978;-79
2020/12/29 07:59:39;;;;;;;7.97;5.40;;;4.80;99.90;;;;;;4995434;28;20694;-83
2020/12/29 08:02:08;;;;;;;7.73;5.43;;;4.80;99.90;;;;;;4994714;28;20436;-80
2020/12/29 08:04:34;;;;;;;5.13;4.70;;;4.70;99.90;;;;;;4995671;28;20208;-81
2020/12/29 08:07:07;;;;;;;8.60;6.07;;;4.70;99.90;;;;;;4995049;28;20504;-84
2020/12/29 08:09:46;;;;;;;8.70;5.77;;;4.80;99.90;;;;;;5003464;28;20275;-80
2020/12/29 08:12:16;;;;;;;9.27;6.70;;;4.70;99.90;;;;;;5000301;28;20516;-81
2020/12/29 08:18:13;;;;;;;8.40;6.27;;;4.70;99.90;;;;;;4994984;28;20458;-82
2020/12/29 08:20:48;;;;;;;7.87;6.00;;;4.70;99.90;;;;;;5000808;28;20438;-77
2020/12/29 08:23:18;;;;;;;7.90;5.63;;;4.80;99.90;;;;;;4994987;28;20423;-82
2020/12/29 08:25:53;;;;;;;8.73;7.00;;;4.80;99.90;;;;;;4994894;28;20424;-89
2020/12/29 08:28:20;;;;;;;11.07;6.47;;;4.80;99.90;;;;;;5000268;28;21013;-84
2020/12/29 08:30:45;;;;;;;8.40;6.27;;;4.90;99.90;;;;;;5000320;28;20801;-87
2020/12/29 08:33:14;;;;;;;7.87;6.57;;;5.00;99.90;;;;;;5014309;28;20445;-82
2020/12/29 08:35:51;;;;;;;9.93;6.87;;;5.00;99.90;;;;;;5005628;28;20203;-81
2020/12/29 08:38:30;;;;;;;9.03;6.30;;;4.90;99.90;;;;;;4994043;28;20438;-81
2020/12/29 08:41:04;;;;;;;9.87;7.20;;;4.80;99.90;;;;;;5001001;28;20776;-81
2020/12/29 08:43:30;;;;;;;13.93;7.20;;;5.00;99.90;;;;;;4999720;28;20436;-81
2020/12/29 08:46:03;;;;;;;7.63;6.80;;;4.90;99.90;;;;;;4983053;28;21099;-80
2020/12/29 08:48:29;;;;;;;8.63;6.87;;;4.90;99.90;;;;;;4985983;28;20443;-81
2020/12/29 08:50:55;;;;;;;11.13;7.10;;;5.00;99.90;;;;;;4985270;28;20427;-81
2020/12/29 08:53:25;;;;;;;14.73;6.73;;;5.00;99.90;;;;;;4985429;28;20460;-81
2020/12/29 08:55:51;;;;;;;7.60;6.43;;;5.00;99.90;;;;;;4974818;28;20705;-81
2020/12/29 08:58:26;;;;;;;9.70;6.60;;;5.10;99.90;;;;;;4979312;28;20562;-81
2020/12/29 09:00:53;;;;;;;13.97;6.83;;;5.10;99.90;;;;;;4982430;28;20513;-82
2020/12/29 09:03:25;;;;;;;10.60;6.77;;;5.20;99.90;;;;;;4990827;28;20443;-81
2020/12/29 09:05:53;;;;;;;8.83;6.50;;;5.20;99.90;;;;;;4983431;28;20937;-82
2020/12/29 09:08:28;;;;;;;9.37;6.73;;;5.30;99.90;;;;;;4983740;28;20499;-82
2020/12/29 09:11:14;;;;;;;7.30;6.07;;;5.40;99.90;;;;;;4978448;28;20424;-82
2020/12/29 09:14:05;;;;;;;11.00;6.93;;;5.40;99.90;;;;;;4974128;28;20438;-81
2020/12/29 09:16:31;;;;;;;10.50;5.40;;;5.30;99.90;;;;;;4982668;28;20502;-82
2020/12/29 09:18:56;;;;;;;14.70;6.30;;;5.50;99.90;;;;;;4983739;28;20468;-81
2020/12/29 09:21:24;;;;;;;14.33;8.10;;;5.50;99.90;;;;;;4982935;28;20432;-79
2020/12/29 09:24:01;;;;;;;9.23;6.37;;;5.40;99.90;;;;;;4974672;28;20181;-75
2020/12/29 09:26:27;;;;;;;12.13;6.80;;;5.30;99.90;;;;;;4976926;28;20529;-80
2020/12/29 09:28:52;;;;;;;10.73;6.20;;;5.40;99.90;;;;;;4976369;28;20510;-76
2020/12/29 09:31:29;;;;;;;11.13;6.63;;;5.60;99.90;;;;;;4975463;28;20486;-76
2020/12/29 09:33:55;;;;;;;9.20;6.33;;;5.50;99.90;;;;;;4975102;28;20525;-79
2020/12/29 09:36:23;;;;;;;7.53;5.03;;;5.50;99.90;;;;;;4986508;28;20430;-77
2020/12/29 09:38:54;;;;;;;6.70;5.77;;;5.50;99.90;;;;;;4994473;28;20502;-77
2020/12/29 09:41:21;;;;;;;7.50;5.40;;;5.60;99.90;;;;;;4994648;28;20427;-79
2020/12/29 09:43:48;;;;;;;7.07;4.90;;;5.70;99.90;;;;;;4995006;28;20850;-76
2020/12/29 09:46:14;;;;;;;7.90;6.40;;;5.80;99.90;;;;;;4998431;28;20499;-79
2020/12/29 09:48:43;;;;;;;7.40;5.60;;;5.90;99.90;;;;;;4995639;28;20447;-75
2020/12/29 09:51:11;;;;;;;8.80;6.30;;;5.90;99.90;;;;;;4992460;28;20567;-75
2020/12/29 09:53:37;;;;;;;12.30;7.63;;;6.00;99.90;;;;;;4992515;28;20436;-75
2020/12/29 09:56:02;;;;;;;10.43;5.10;;;6.10;99.90;;;;;;4991997;28;20247;-77
2020/12/29 09:58:28;;;;;;;8.87;6.17;;;6.30;99.90;;;;;;4994195;28;20183;-82
2020/12/29 10:00:54;;;;;;;8.60;5.60;;;6.40;99.90;;;;;;5000082;28;20186;-80
2020/12/29 10:03:20;;;;;;;7.83;6.20;;;6.50;99.90;;;;;;4989304;28;20184;-82
2020/12/29 10:05:48;;;;;;;7.60;5.27;;;6.40;99.90;;;;;;5003579;28;20177;-89
2020/12/29 10:08:14;;;;;;;8.53;5.43;;;6.40;99.90;;;;;;5002834;28;20845;-86
2020/12/29 10:10:39;;;;;;;6.73;5.03;;;6.30;99.90;;;;;;4998131;28;20461;-82
2020/12/29 10:13:05;;;;;;;8.07;4.97;;;6.30;99.90;;;;;;5008670;28;20215;-81
2020/12/29 10:15:31;;;;;;;11.03;6.30;;;6.20;99.90;;;;;;5011284;28;20511;-82
2020/12/29 10:17:56;;;;;;;14.03;6.10;;;6.20;99.90;;;;;;5001666;28;20176;-83
2020/12/29 10:20:22;;;;;;;9.27;5.93;;;6.20;99.90;;;;;;5000911;28;20197;-80
2020/12/29 10:22:48;;;;;;;10.50;5.67;;;6.10;99.90;;;;;;5003654;28;20195;-81
2020/12/29 10:25:16;;;;;;;11.93;5.87;;;5.90;99.90;;;;;;5002796;28;20164;-83
2020/12/29 10:27:46;;;;;;;13.77;6.67;;;6.00;99.90;;;;;;5001933;28;20499;-81
2020/12/29 10:30:12;;;;;;;10.30;5.90;;;6.00;99.90;;;;;;5000582;28;20436;-80
2020/12/29 10:32:39;;;;;;;8.60;5.10;;;6.10;99.90;;;;;;5001051;28;20869;-81
2020/12/29 10:35:05;;;;;;;6.53;5.50;;;6.20;99.90;;;;;;5000304;28;20437;-83
2020/12/29 10:37:31;;;;;;;7.67;5.50;;;6.30;99.90;;;;;;4995696;28;20435;-80
2020/12/29 10:39:56;;;;;;;7.87;6.10;;;6.00;99.90;;;;;;5000784;28;20430;-84
2020/12/29 10:42:22;;;;;;;7.60;5.30;;;6.00;99.90;;;;;;5002994;28;20230;-83
2020/12/29 10:44:48;;;;;;;12.73;6.10;;;5.90;99.90;;;;;;4999861;28;20176;-81
2020/12/29 10:47:13;;;;;;;8.17;5.73;;;5.90;99.90;;;;;;4998794;28;20220;-83
2020/12/29 10:49:39;;;;;;;6.43;5.83;;;6.00;99.90;;;;;;5009556;28;20199;-82
2020/12/29 10:52:04;;;;;;;9.93;6.80;;;6.00;99.90;;;;;;5002257;28;20203;-81
2020/12/29 10:54:30;;;;;;;9.57;7.63;;;6.00;99.90;;;;;;4999798;28;20192;-83
2020/12/29 10:56:55;;;;;;;12.10;6.13;;;6.00;99.90;;;;;;4985109;28;20712;-81
2020/12/29 10:59:21;;;;;;;9.37;6.50;;;6.00;99.90;;;;;;4976870;28;20230;-83
2020/12/29 11:01:46;;;;;;;10.57;6.40;;;6.10;99.90;;;;;;4978097;28;20178;-82
2020/12/29 11:04:12;;;;;;;12.30;6.57;;;6.00;99.90;;;;;;4977656;28;20178;-84
2020/12/29 11:06:37;;;;;;;11.17;7.03;;;6.10;99.90;;;;;;4974647;28;20296;-83
2020/12/29 11:09:04;;;;;;;13.27;8.87;;;6.20;99.90;;;;;;4990310;28;20189;-73
2020/12/29 11:11:29;;;;;;;16.60;8.97;;;6.10;99.90;;;;;;4991455;28;20184;-80
2020/12/29 11:13:55;;;;;;;16.23;8.80;;;6.20;99.90;;;;;;4992326;28;20427;-80
2020/12/29 11:16:21;;;;;;;15.97;11.10;;;6.10;99.90;;;;;;4992540;28;20179;-76
2020/12/29 11:18:48;;;;;;;12.40;9.77;;;6.20;99.90;;;;;;4993107;28;20201;-84
2020/12/29 11:21:15;;;;;;;13.67;10.83;;;6.20;99.90;;;;;;4993099;28;20437;-76
2020/12/29 11:23:41;;;;;;;18.00;10.90;;;6.20;99.90;;;;;;4993327;28;20467;-84
2020/12/29 11:26:06;;;;;;;18.73;11.47;;;6.10;99.90;;;;;;4993087;28;20463;-70
2020/12/29 11:28:32;;;;;;;15.17;11.73;;;6.10;99.90;;;;;;4992930;28;20520;-76
2020/12/29 11:30:58;;;;;;;22.00;12.07;;;6.00;99.90;;;;;;4992754;28;20212;-79
2020/12/29 11:33:23;;;;;;;22.50;12.00;;;6.10;99.90;;;;;;4992976;28;20238;-75
2020/12/29 11:35:49;;;;;;;17.50;11.50;;;6.00;99.90;;;;;;4993853;28;20178;-75
2020/12/29 11:38:20;;;;;;;20.47;12.90;;;5.90;99.90;;;;;;4996471;28;20176;-73
2020/12/29 11:40:46;;;;;;;17.17;13.33;;;5.90;99.90;;;;;;4996466;28;20208;-80
2020/12/29 11:43:12;;;;;;;17.20;13.00;;;5.90;99.90;;;;;;4996469;28;20464;-78
2020/12/29 11:45:38;;;;;;;24.70;13.80;;;5.80;99.90;;;;;;4996330;28;20260;-79
2020/12/29 11:48:04;;;;;;;21.23;13.87;;;5.70;99.90;;;;;;4997706;28;20886;-83
2020/12/29 11:50:29;;;;;;;18.87;12.90;;;5.70;99.90;;;;;;4996263;28;20187;-78
2020/12/29 11:52:55;;;;;;;20.30;12.97;;;5.70;99.90;;;;;;5004733;28;20185;-76
2020/12/29 11:55:20;;;;;;;18.80;13.87;;;5.70;99.90;;;;;;5008142;28;20184;-79
2020/12/29 11:57:46;;;;;;;21.07;13.50;;;5.60;99.90;;;;;;4996022;28;20220;-88
2020/12/29 12:00:11;;;;;;;26.50;14.63;;;5.70;99.90;;;;;;4993689;28;20200;-84
2020/12/29 12:02:37;;;;;;;26.47;14.60;;;5.70;99.90;;;;;;5003805;28;20184;-80
2020/12/29 12:05:02;;;;;;;18.13;12.77;;;5.70;99.90;;;;;;5004027;28;20169;-76
2020/12/29 12:07:28;;;;;;;22.47;15.00;;;5.80;99.90;;;;;;5003703;28;20212;-84
2020/12/29 12:09:53;;;;;;;21.07;13.43;;;5.70;99.90;;;;;;4995807;28;20585;-81
2020/12/29 12:12:19;;;;;;;21.50;14.50;;;5.70;99.90;;;;;;5006198;28;20579;-81
2020/12/29 12:14:45;;;;;;;24.07;14.07;;;5.80;99.90;;;;;;4990188;28;20225;-80
2020/12/29 12:17:11;;;;;;;24.10;15.27;;;5.80;99.90;;;;;;4985942;28;20220;-81
2020/12/29 12:19:36;;;;;;;20.30;15.17;;;5.80;99.90;;;;;;4987279;28;20600;-82
2020/12/29 12:22:02;;;;;;;24.93;15.20;;;5.80;99.90;;;;;;4996149;28;20469;-82
2020/12/29 12:24:28;;;;;;;29.07;16.07;;;5.70;99.90;;;;;;5010003;28;20184;-83
2020/12/29 12:26:53;;;;;;;23.10;14.80;;;5.60;99.90;;;;;;5013964;28;20485;-84
2020/12/29 12:29:19;;;;;;;24.33;15.00;;;5.50;99.90;;;;;;5013770;28;20212;-83
2020/12/29 12:31:44;;;;;;;27.73;16.63;;;5.60;99.90;;;;;;5014888;28;20210;-83
2020/12/29 12:34:10;;;;;;;20.60;13.90;;;5.70;99.90;;;;;;5014862;28;20177;-84
2020/12/29 12:36:36;;;;;;;20.03;13.83;;;5.80;99.90;;;;;;5014866;28;20651;-83
2020/12/29 12:39:02;;;;;;;26.43;15.93;;;5.90;99.90;;;;;;5014686;28;20176;-84
2020/12/29 12:41:27;;;;;;;23.07;15.47;;;5.80;99.90;;;;;;5014837;28;20187;-84
2020/12/29 12:43:53;;;;;;;23.90;15.13;;;5.80;99.90;;;;;;5015177;28;20454;-83
2020/12/29 12:46:18;;;;;;;25.23;15.53;;;5.80;99.90;;;;;;5014692;28;20667;-83
2020/12/29 12:48:44;;;;;;;28.00;15.63;;;5.80;99.90;;;;;;5015101;28;20238;-84
2020/12/29 12:51:10;;;;;;;31.83;16.37;;;5.90;99.90;;;;;;5014871;28;20176;-83
2020/12/29 12:53:35;;;;;;;23.80;14.17;;;5.80;99.90;;;;;;5015037;28;20188;-83
2020/12/29 12:56:01;;;;;;;23.03;15.70;;;5.70;99.90;;;;;;5018364;28;20446;-84
2020/12/29 12:58:27;;;;;;;20.00;14.47;;;5.80;99.90;;;;;;5015314;28;20234;-83
2020/12/29 13:00:52;;;;;;;29.70;17.30;;;5.70;99.90;;;;;;5014575;28;20180;-83
2020/12/29 13:03:18;;;;;;;27.07;17.07;;;5.70;99.90;;;;;;5014683;28;20185;-83
2020/12/29 13:05:44;;;;;;;24.13;15.23;;;5.70;99.90;;;;;;5014730;28;20259;-84
2020/12/29 13:08:10;;;;;;;26.10;16.07;;;5.80;99.90;;;;;;5014511;28;20234;-83
2020/12/29 13:10:39;;;;;;;23.43;16.10;;;5.80;99.90;;;;;;5013966;28;20427;-83
2020/12/29 13:13:05;;;;;;;21.27;14.43;;;5.80;99.90;;;;;;5013647;28;20184;-83
2020/12/29 13:15:30;;;;;;;23.00;14.17;;;5.80;99.90;;;;;;5013854;28;20914;-83
2020/12/29 13:17:56;;;;;;;20.80;14.27;;;5.90;99.90;;;;;;5013604;28;20425;-83
2020/12/29 13:20:21;;;;;;;20.47;14.33;;;5.70;99.90;;;;;;5013448;28;20173;-83
2020/12/29 13:23:08;;;;;;;20.27;13.23;;;5.80;99.90;;;;;;5013460;28;20258;-82
2020/12/29 13:25:37;;;;;;;19.37;13.20;;;5.80;99.90;;;;;;5013574;28;20176;-83
2020/12/29 13:28:05;;;;;;;19.73;13.20;;;5.90;99.90;;;;;;5013298;28;20531;-82
2020/12/29 13:30:31;;;;;;;27.87;15.10;;;5.90;99.90;;;;;;5013248;28;20582;-81
2020/12/29 13:32:58;;;;;;;24.03;13.60;;;5.90;99.90;;;;;;5013290;28;20539;-81
2020/12/29 13:35:24;;;;;;;19.63;12.20;;;5.90;99.90;;;;;;5013296;28;20181;-80
2020/12/29 13:37:49;;;;;;;15.87;11.30;;;6.00;99.90;;;;;;5013090;28;20428;-80
2020/12/29 13:40:15;;;;;;;21.17;13.23;;;6.00;99.90;;;;;;5013129;28;20183;-80
2020/12/29 13:42:40;;;;;;;18.40;11.50;;;5.90;99.90;;;;;;5013073;28;20188;-81
2020/12/29 13:45:07;;;;;;;19.53;11.73;;;5.90;99.90;;;;;;5008654;28;20702;-80
2020/12/29 13:47:33;;;;;;;27.77;13.07;;;6.00;99.90;;;;;;5002093;28;20291;-80
2020/12/29 13:49:58;;;;;;;19.17;11.80;;;6.00;99.90;;;;;;5001697;28;20573;-80
2020/12/29 13:52:24;;;;;;;21.33;12.20;;;6.00;99.90;;;;;;5003025;28;20437;-80
2020/12/29 13:54:49;;;;;;;16.90;13.10;;;6.10;99.90;;;;;;5003134;28;20165;-82
2020/12/29 13:57:15;;;;;;;16.60;10.60;;;6.00;99.90;;;;;;5001469;28;20219;-81
2020/12/29 13:59:41;;;;;;;18.13;11.53;;;6.20;99.90;;;;;;5002886;28;20175;-86
2020/12/29 14:02:07;;;;;;;17.97;11.67;;;6.20;99.90;;;;;;5002730;28;20183;-87
2020/12/29 14:04:32;;;;;;;18.83;10.87;;;6.20;99.90;;;;;;5002060;28;20184;-81
2020/12/29 14:06:58;;;;;;;18.67;11.63;;;6.00;99.90;;;;;;5009484;28;20503;-80
2020/12/29 14:09:25;;;;;;;13.50;9.53;;;6.10;99.90;;;;;;5012518;28;20171;-80
2020/12/29 14:11:52;;;;;;;16.30;10.70;;;6.20;99.90;;;;;;5012577;28;20180;-80
2020/12/29 14:14:22;;;;;;;19.67;12.40;;;6.10;99.90;;;;;;5012631;28;20459;-75
2020/12/29 14:16:50;;;;;;;16.60;10.93;;;6.20;99.90;;;;;;5012533;28;20431;-74
2020/12/29 14:19:16;;;;;;;17.60;11.00;;;6.30;99.90;;;;;;5012572;28;21025;-78
2020/12/29 14:21:46;;;;;;;15.93;10.63;;;6.20;99.90;;;;;;5006074;28;20539;-74
2020/12/29 14:24:13;;;;;;;15.60;10.77;;;6.20;99.90;;;;;;5002045;28;20579;-76
2020/12/29 14:26:40;;;;;;;14.33;8.73;;;6.30;99.90;;;;;;5003222;28;20846;-75
2020/12/29 14:29:06;;;;;;;15.60;8.70;;;6.40;99.90;;;;;;4997876;28;20431;-76
2020/12/29 14:31:34;;;;;;;11.90;9.07;;;6.30;99.90;;;;;;4995505;28;20423;-82
2020/12/29 14:34:01;;;;;;;14.47;10.20;;;6.30;99.90;;;;;;5002232;28;20427;-80
2020/12/29 14:36:26;;;;;;;13.53;8.77;;;6.40;99.90;;;;;;5006116;28;20435;-83
2020/12/29 14:38:52;;;;;;;15.03;10.20;;;6.40;99.90;;;;;;5001947;28;20423;-82
2020/12/29 14:41:17;;;;;;;12.47;9.63;;;6.30;99.90;;;;;;5001805;28;20176;-81
2020/12/29 14:43:43;;;;;;;11.80;8.50;;;6.30;99.90;;;;;;5003276;28;20543;-93
2020/12/29 14:46:08;;;;;;;11.63;8.87;;;6.40;99.90;;;;;;5001776;28;20197;-82
2020/12/29 14:48:34;;;;;;;15.07;8.83;;;6.40;99.90;;;;;;5002514;28;20652;-81
2020/12/29 14:51:00;;;;;;;13.60;9.90;;;6.40;99.90;;;;;;5002767;28;20173;-80
2020/12/29 14:53:25;;;;;;;14.13;8.40;;;6.40;99.90;;;;;;5000740;28;20177;-80
2020/12/29 14:55:51;;;;;;;12.97;8.30;;;6.50;99.90;;;;;;5002862;28;20661;-86
2020/12/29 14:58:16;;;;;;;14.87;9.53;;;6.40;99.90;;;;;;5002901;28;20211;-83
2020/12/29 15:00:42;;;;;;;13.50;7.47;;;6.40;99.90;;;;;;4991983;28;20943;-77
2020/12/29 15:03:08;;;;;;;11.13;8.60;;;6.40;99.90;;;;;;4999910;28;20169;-72
2020/12/29 15:05:33;;;;;;;17.43;10.20;;;6.40;99.90;;;;;;4992404;28;20188;-74
2020/12/29 15:07:59;;;;;;;14.70;9.23;;;6.40;99.90;;;;;;4992305;28;20248;-79
2020/12/29 15:10:24;;;;;;;12.30;8.33;;;6.40;99.90;;;;;;4992792;28;20543;-70
2020/12/29 15:12:50;;;;;;;11.90;8.83;;;6.50;99.90;;;;;;4996175;28;20188;-72
2020/12/29 15:15:15;;;;;;;15.73;9.10;;;6.60;99.90;;;;;;4993612;28;20272;-82
2020/12/29 15:17:41;;;;;;;11.73;8.03;;;6.60;99.90;;;;;;4996196;28;20173;-80
2020/12/29 15:20:06;;;;;;;17.90;9.47;;;6.70;99.90;;;;;;4994789;28;20778;-74
2020/12/29 15:22:32;;;;;;;15.77;8.30;;;6.60;99.90;;;;;;4996000;28;20222;-72
2020/12/29 15:24:57;;;;;;;10.73;8.10;;;6.60;99.90;;;;;;4995816;28;20180;-70
2020/12/29 15:27:23;;;;;;;13.70;9.00;;;6.50;99.90;;;;;;4994766;28;20730;-78
2020/12/29 15:29:48;;;;;;;11.70;7.73;;;6.50;99.90;;;;;;4995743;28;20231;-72
2020/12/29 15:32:14;;;;;;;13.43;7.80;;;6.60;99.90;;;;;;4995698;28;20196;-72
2020/12/29 15:34:39;;;;;;;10.50;7.40;;;6.60;99.90;;;;;;4996242;28;20547;-71
2020/12/29 15:37:05;;;;;;;10.57;7.50;;;6.60;99.90;;;;;;4996235;28;20181;-77
2020/12/29 15:39:30;;;;;;;18.70;9.03;;;6.60;99.90;;;;;;4996332;28;20543;-77
2020/12/29 15:41:56;;;;;;;12.40;7.60;;;6.40;99.90;;;;;;4995939;28;20187;-73
2020/12/29 15:44:21;;;;;;;17.80;9.40;;;6.40;99.90;;;;;;5004621;28;20184;-74
2020/12/29 15:46:47;;;;;;;11.55;8.95;;;6.40;99.90;;;;;;5010752;28;20791;-74
2020/12/29 15:49:14;;;;;;;13.03;9.13;;;6.50;99.90;;;;;;4997016;28;20181;-77
2020/12/29 15:51:39;;;;;;;12.80;8.40;;;6.60;99.90;;;;;;4985421;28;20177;-81
2020/12/29 15:54:05;;;;;;;14.67;9.03;;;6.60;99.90;;;;;;4985246;28;20835;-78
2020/12/29 15:56:31;;;;;;;12.93;9.30;;;6.60;99.90;;;;;;4986363;28;21037;-78
2020/12/29 15:58:57;;;;;;;18.20;9.10;;;6.60;99.90;;;;;;4984699;28;20185;-84
2020/12/29 16:01:22;;;;;;;10.73;8.80;;;6.60;99.90;;;;;;4985157;28;20432;-83
2020/12/29 16:03:49;;;;;;;12.30;8.90;;;6.60;99.90;;;;;;4999922;28;20261;-74
2020/12/29 16:06:15;;;;;;;11.00;8.03;;;6.40;99.90;;;;;;5009695;28;20246;-73
2020/12/29 16:08:41;;;;;;;14.00;9.10;;;6.30;99.90;;;;;;4998613;28;20534;-75
2020/12/29 16:11:07;;;;;;;15.60;9.80;;;6.50;99.90;;;;;;5000740;28;20200;-78
2020/12/29 16:13:32;;;;;;;16.40;9.30;;;6.40;99.90;;;;;;5001132;28;20451;-78
2020/12/29 16:15:58;;;;;;;13.40;8.40;;;6.40;99.90;;;;;;5004604;28;20207;-78
2020/12/29 16:18:23;;;;;;;20.47;9.83;;;6.40;99.90;;;;;;5006270;28;20539;-78
2020/12/29 16:20:49;;;;;;;15.50;9.63;;;6.40;99.90;;;;;;5004544;28;20180;-78
2020/12/29 16:23:14;;;;;;;14.20;9.00;;;6.50;99.90;;;;;;5004604;28;20173;-78
2020/12/29 16:25:41;;;;;;;19.30;9.53;;;6.60;99.90;;;;;;5006158;28;20188;-78
2020/12/29 16:28:06;;;;;;;15.87;8.20;;;6.50;99.90;;;;;;5004190;28;20221;-77
2020/12/29 16:30:32;;;;;;;16.50;9.23;;;6.60;99.90;;;;;;5007489;28;20454;-77
2020/12/29 16:32:57;;;;;;;10.63;7.40;;;6.60;99.90;;;;;;5004659;28;20264;-77
2020/12/29 16:35:23;;;;;;;12.43;8.23;;;6.50;99.90;;;;;;5004272;28;20200;-76
2020/12/29 16:37:48;;;;;;;12.73;9.20;;;6.60;99.90;;;;;;5006084;28;20183;-76
2020/12/29 16:40:15;;;;;;;11.40;8.13;;;6.50;99.90;;;;;;5001124;28;20579;-75
2020/12/29 16:42:41;;;;;;;14.43;7.70;;;6.50;99.90;;;;;;4987762;28;20185;-73
2020/12/29 16:45:07;;;;;;;10.83;7.63;;;6.50;99.90;;;;;;4984334;28;20467;-71
2020/12/29 16:47:32;;;;;;;16.07;8.50;;;6.50;99.90;;;;;;4985104;28;20889;-74
2020/12/29 16:50:00;;;;;;;12.37;8.70;;;6.60;99.90;;;;;;4983360;28;20532;-75
2020/12/29 16:52:28;;;;;;;11.67;8.03;;;6.50;99.90;;;;;;4984394;28;20181;-79
2020/12/29 16:54:54;;;;;;;13.00;8.70;;;6.50;99.90;;;;;;4985023;28;20486;-76
2020/12/29 16:57:20;;;;;;;15.27;8.70;;;6.60;99.90;;;;;;4981403;28;20480;-79
2020/12/29 16:59:45;;;;;;;10.00;8.10;;;6.50;99.90;;;;;;4993651;28;20473;-78
2020/12/29 17:02:11;;;;;;;16.80;8.50;;;6.60;99.90;;;;;;4994148;28;20667;-77
2020/12/29 17:04:37;;;;;;;15.40;8.60;;;6.60;99.90;;;;;;4994088;28;20186;-76
2020/12/29 17:07:03;;;;;;;13.07;8.00;;;6.50;99.90;;;;;;4993950;28;20315;-76
2020/12/29 17:09:30;;;;;;;16.37;9.03;;;6.50;99.90;;;;;;4985420;28;20186;-77
2020/12/29 17:11:55;;;;;;;16.40;8.93;;;6.40;99.90;;;;;;4974580;28;21008;-80